Bertem, Belgium

10:59 AM CET on December 14, 2017 (GMT +0100)
Bertem | | Change Station

Elev 137 ft 50.87 °N, 4.64 °E | Updated 3 minutes ago

Mostly Cloudy
Mostly Cloudy
39.0 °F
Feels Like 34 °F
N
6.2
Wind Variable Wind from West
Gusts 14.9 mph

Today
High -- | Low -- °F
--% Chance of Precip.
Yesterday
High -- | Low -- °F
Precip. -- in
Pressure 29.36 in
Visibility 6.2 miles
Clouds Scattered Clouds 2200 ft
Mostly Cloudy 3000 ft
Windchill 34 °F
Dew Point 38 °F
Humidity 95%
Rainfall 0.19 in
Snow Depth Not available.
8:36 AM 4:35 PM
Waning Crescent, 13% visible
METAR EBBL 140925Z 22019G32KT 9999 SCT022 BKN030 04/02 Q0994 WHT BLU TEMPO WHT
Pressure 29.36 in
Visibility 6.2 miles
Clouds Scattered Clouds 2200 ft
Mostly Cloudy 3000 ft
Windchill 34 °F
Dew Point 38 °F
Humidity 95%
Rainfall 0.19 in
Snow Depth Not available.
8:36 AM 4:35 PM
Waning Crescent, 13% visible
METAR EBBL 140925Z 22019G32KT 9999 SCT022 BKN030 04/02 Q0994 WHT BLU TEMPO WHT

Get Severe Weather Alerts

Thanks for signing up!

Be on the lookout for a verification email in your inbox.

You'll start receiving the daily forecast at 6 AM.

×

10-Day Weather Forecast

×

Almanac

Astronomy

Dec. 14, 2017 Rise Set
Actual Time
Civil Twilight
Nautical Twilight
Astronomical Twilight
Moon
Length of Visible Light
Length of Day
Tomorrow will be .
, % of the Moon is Illuminated

Today's Extremes

Country Highs Country Lows

Community

WunderPhotos

Category 6

Welcome to Category 6. This is the collective home for Weather Underground's featured writeups by Dr. Jeff Masters (right), Bob Henson (left), Chris Burt, and other regular contributors.

Nearby

Air Quality

  Air Quality AQ Index Pollutant
Not available.

Snow Depth

Station Depth Elevation

Earthquake Activity

City Distance Mag. Time & Date
Minimum magnitude displayed is 2.5.

Coastal Water Temperatures

Place Temperature

Stations

Nearby Weather Stations

Station Location Temp. Windchill Dew Point Humidity Wind Precip. Elev Updated Type